createdAt,value
2023-05-05T00:00:29.785Z,70.00
2023-05-05T00:01:03.156Z,69.50
2023-05-05T00:01:36.618Z,68.80
2023-05-05T00:02:09.192Z,69.10
2023-05-05T00:02:41.909Z,68.90
2023-05-05T00:03:15.414Z,70.50
2023-05-05T00:03:48.007Z,69.55
2023-05-05T00:04:22.686Z,68.82
2023-05-05T00:04:56.409Z,69.55
2023-05-05T00:05:29.049Z,70.13
2023-05-05T00:06:01.767Z,69.07
2023-05-05T00:06:35.224Z,69.93
2023-05-05T00:07:07.714Z,70.10
2023-05-05T00:07:40.276Z,69.90
2023-05-05T00:08:13.720Z,68.90
2023-05-05T00:08:46.319Z,69.20
2023-05-05T00:09:18.855Z,70.63
2023-05-05T00:09:52.326Z,69.63
2023-05-05T00:10:25.049Z,69.07
2023-05-05T00:11:01.405Z,69.05
2023-05-05T00:11:34.900Z,68.43
2023-05-05T00:12:07.691Z,70.05
2023-05-05T00:12:40.175Z,69.40
2023-05-05T00:13:15.040Z,69.72
2023-05-05T00:13:47.764Z,68.65
2023-05-05T00:14:20.289Z,68.93
2023-05-05T00:14:53.759Z,69.35
2023-05-05T00:15:27.378Z,69.78
2023-05-05T00:16:00.211Z,69.60
2023-05-05T00:16:33.868Z,69.30
2023-05-05T00:17:06.492Z,70.07
2023-05-05T00:17:39.129Z,69.22
2023-05-05T00:18:12.928Z,70.55
2023-05-05T00:18:45.651Z,71.03
2023-05-05T00:19:18.139Z,69.78
2023-05-05T00:19:51.555Z,70.60
2023-05-05T00:20:24.079Z,69.82
2023-05-05T00:20:56.586Z,70.05
2023-05-05T00:21:30.053Z,69.65
2023-05-05T00:22:02.500Z,69.60
2023-05-05T00:22:34.954Z,70.78
2023-05-05T00:23:08.607Z,69.80
2023-05-05T00:23:41.093Z,70.47
2023-05-05T00:24:13.709Z,69.35
2023-05-05T00:24:47.207Z,70.95
2023-05-05T00:25:19.748Z,70.20
2023-05-05T00:25:52.267Z,69.82
2023-05-05T00:26:24.760Z,69.45
2023-05-05T00:26:59.334Z,70.47
2023-05-05T00:27:31.787Z,69.50
2023-05-05T00:28:04.441Z,70.63
2023-05-05T00:28:39.333Z,69.97
2023-05-05T00:29:11.885Z,70.22
2023-05-05T00:29:44.788Z,70.38
2023-05-05T00:30:17.323Z,69.85
2023-05-05T00:30:51.217Z,69.88
2023-05-05T00:31:23.816Z,71.18
2023-05-05T00:31:56.606Z,69.32
2023-05-05T00:32:30.173Z,71.28
2023-05-05T00:33:02.754Z,69.70
2023-05-05T00:33:36.912Z,70.28
2023-05-05T00:34:10.393Z,69.55
2023-05-05T00:34:43.123Z,68.97
2023-05-05T00:35:16.037Z,69.97
2023-05-05T00:35:50.469Z,69.93
2023-05-05T00:36:23.028Z,70.63
2023-05-05T00:36:55.552Z,70.18
2023-05-05T00:37:29.230Z,71.30
2023-05-05T00:38:02.971Z,71.20
2023-05-05T00:38:35.467Z,70.93
2023-05-05T00:39:08.971Z,71.03
2023-05-05T00:39:41.598Z,70.63
2023-05-05T00:40:14.267Z,71.53
2023-05-05T00:40:46.822Z,69.65
2023-05-05T00:41:20.340Z,70.28
2023-05-05T00:41:52.876Z,70.25
2023-05-05T00:42:26.334Z,71.35
2023-05-05T00:42:59.649Z,70.43
2023-05-05T00:43:33.220Z,70.45
2023-05-05T00:44:07.175Z,70.40
2023-05-05T00:44:41.471Z,69.32
2023-05-05T00:45:17.092Z,71.75
2023-05-05T00:45:56.483Z,72.93
2023-05-05T00:46:32.221Z,71.00
2023-05-05T00:47:05.379Z,70.82
2023-05-05T00:47:38.827Z,72.20
2023-05-05T00:48:12.735Z,70.90
2023-05-05T00:48:45.513Z,71.32
2023-05-05T00:49:18.050Z,71.15
2023-05-05T00:49:52.582Z,70.97
2023-05-05T00:50:26.785Z,72.00
2023-05-05T00:50:59.598Z,71.05
2023-05-05T00:51:33.333Z,71.32
2023-05-05T00:52:07.301Z,71.40
2023-05-05T00:52:40.114Z,71.65
2023-05-05T00:53:14.125Z,71.47
2023-05-05T00:53:47.541Z,71.07
2023-05-05T00:54:20.051Z,72.45
2023-05-05T00:54:53.485Z,71.78
2023-05-05T00:55:27.466Z,71.20
2023-05-05T00:56:00.151Z,70.85
2023-05-05T00:56:34.125Z,73.28
2023-05-05T00:57:06.664Z,70.80
2023-05-05T00:57:39.329Z,72.03
2023-05-05T00:58:13.591Z,70.93
2023-05-05T00:58:46.881Z,70.40
2023-05-05T00:59:21.216Z,72.10
2023-05-05T00:59:55.900Z,71.40
2023-05-05T01:00:28.889Z,72.10
2023-05-05T01:01:01.414Z,71.57
2023-05-05T01:01:36.232Z,69.88
2023-05-05T01:02:09.184Z,70.55
2023-05-05T01:02:42.249Z,71.22
2023-05-05T01:03:15.869Z,71.38
2023-05-05T01:03:48.598Z,71.68
2023-05-05T01:04:21.547Z,72.07
2023-05-05T01:04:54.532Z,71.63
2023-05-05T01:05:33.023Z,70.53
2023-05-05T01:06:15.409Z,71.57
2023-05-05T01:06:59.303Z,73.43
2023-05-05T01:07:44.988Z,73.18
2023-05-05T01:08:29.238Z,72.13
2023-05-05T01:09:09.889Z,72.85
2023-05-05T01:10:07.251Z,73.65
2023-05-05T01:10:58.350Z,74.00
2023-05-05T01:11:36.124Z,73.53
2023-05-05T01:12:15.280Z,73.65
2023-05-05T01:13:00.967Z,74.18
2023-05-05T01:13:42.816Z,75.18
2023-05-05T01:14:19.279Z,74.38
2023-05-05T01:15:04.342Z,75.65
2023-05-05T01:15:40.629Z,74.53
2023-05-05T01:16:19.478Z,74.32
2023-05-05T01:16:57.541Z,74.20
2023-05-05T01:17:37.260Z,74.28
2023-05-05T01:18:16.789Z,75.97
2023-05-05T01:18:54.222Z,75.80
2023-05-05T01:19:54.568Z,74.78
2023-05-05T01:20:33.208Z,73.53
2023-05-05T01:21:14.218Z,73.93
2023-05-05T01:21:50.622Z,76.93
2023-05-05T01:22:28.773Z,73.60
2023-05-05T01:23:06.274Z,77.32
2023-05-05T01:23:59.111Z,73.90
2023-05-05T01:24:54.707Z,76.15
2023-05-05T01:26:02.655Z,75.22
2023-05-05T01:26:51.606Z,74.97
2023-05-05T01:27:59.353Z,76.55
2023-05-05T01:28:48.159Z,74.40
2023-05-05T01:29:44.772Z,74.93
2023-05-05T01:30:39.906Z,73.80
2023-05-05T01:31:37.778Z,75.93
2023-05-05T01:32:13.920Z,75.17
2023-05-05T01:32:51.131Z,74.90
2023-05-05T01:33:27.513Z,75.50
2023-05-05T01:34:05.732Z,74.57
2023-05-05T01:34:43.892Z,74.53
2023-05-05T01:35:20.687Z,74.57
2023-05-05T01:35:56.065Z,73.90
2023-05-05T01:36:36.961Z,75.93
2023-05-05T01:37:15.526Z,73.60
2023-05-05T01:37:51.793Z,74.70
2023-05-05T01:38:31.843Z,75.68
2023-05-05T01:39:06.837Z,73.85
2023-05-05T01:39:40.974Z,74.90
2023-05-05T01:40:16.516Z,72.97
2023-05-05T01:40:52.320Z,74.70
2023-05-05T01:41:30.448Z,74.43
2023-05-05T01:42:09.256Z,73.57
2023-05-05T01:42:43.821Z,74.70
2023-05-05T01:43:19.942Z,73.30
2023-05-05T01:43:54.725Z,73.70
2023-05-05T01:44:29.182Z,74.38
2023-05-05T01:45:04.199Z,73.05
2023-05-05T01:45:41.090Z,73.15
2023-05-05T01:46:15.097Z,72.45
2023-05-05T01:46:50.347Z,73.38
2023-05-05T01:47:25.099Z,74.43
2023-05-05T01:47:58.889Z,73.15
2023-05-05T01:48:33.378Z,72.20
2023-05-05T01:49:08.013Z,74.10
2023-05-05T01:49:43.011Z,74.20
2023-05-05T01:50:16.166Z,73.00
2023-05-05T01:50:50.877Z,74.60
2023-05-05T01:51:25.353Z,74.00
2023-05-05T01:51:58.325Z,73.32
2023-05-05T01:52:32.664Z,72.88
2023-05-05T01:53:06.735Z,74.45
2023-05-05T01:53:40.316Z,73.63
2023-05-05T01:54:13.998Z,71.50
2023-05-05T01:54:49.009Z,72.97
2023-05-05T01:55:25.072Z,73.80
2023-05-05T01:55:59.622Z,74.28
2023-05-05T01:56:34.175Z,73.32
2023-05-05T01:57:10.114Z,73.35
2023-05-05T01:57:44.557Z,73.70
2023-05-05T01:58:18.755Z,74.30
2023-05-05T01:58:51.774Z,75.57
2023-05-05T01:59:26.464Z,73.43
2023-05-05T02:00:01.816Z,73.50
2023-05-05T02:00:35.392Z,74.07
2023-05-05T02:01:08.626Z,74.57
2023-05-05T02:01:44.751Z,72.93
2023-05-05T02:02:20.738Z,74.50
2023-05-05T02:02:56.116Z,73.05
2023-05-05T02:03:34.034Z,73.97
2023-05-05T02:04:09.837Z,73.13
2023-05-05T02:04:44.221Z,72.85
2023-05-05T02:05:19.332Z,73.47
2023-05-05T02:05:54.719Z,73.15
2023-05-05T02:06:29.752Z,73.25
2023-05-05T02:07:03.427Z,73.30
2023-05-05T02:07:37.760Z,73.32
2023-05-05T02:08:11.125Z,72.80
2023-05-05T02:08:44.770Z,74.20
2023-05-05T02:09:18.683Z,75.50
2023-05-05T02:09:51.472Z,74.78
2023-05-05T02:10:24.568Z,75.85
2023-05-05T02:10:58.602Z,75.80
2023-05-05T02:11:31.330Z,73.85
2023-05-05T02:12:07.190Z,75.22
2023-05-05T02:12:41.848Z,75.25
2023-05-05T02:13:15.490Z,77.03
2023-05-05T02:13:50.968Z,76.05
2023-05-05T02:14:25.504Z,74.65
2023-05-05T02:15:01.642Z,76.57
2023-05-05T02:15:36.594Z,75.75
2023-05-05T02:16:10.394Z,75.25
2023-05-05T02:16:43.459Z,75.43
2023-05-05T02:17:19.591Z,74.07
2023-05-05T02:17:53.205Z,74.50
2023-05-05T02:18:27.165Z,73.85
2023-05-05T02:19:05.410Z,73.82
2023-05-05T02:19:41.902Z,74.68
2023-05-05T02:20:16.213Z,74.57
2023-05-05T02:20:49.700Z,74.22
2023-05-05T02:21:22.815Z,74.95
2023-05-05T02:21:55.449Z,74.70
2023-05-05T02:22:29.379Z,73.45
2023-05-05T02:23:02.050Z,74.18
2023-05-05T02:23:36.271Z,74.22
2023-05-05T02:24:09.212Z,74.18
2023-05-05T02:24:42.659Z,75.93
2023-05-05T02:25:17.666Z,74.57
2023-05-05T02:25:53.036Z,74.50
2023-05-05T02:26:26.254Z,74.40
2023-05-05T02:27:00.815Z,75.43
2023-05-05T02:27:35.252Z,74.57
2023-05-05T02:28:13.950Z,75.57
2023-05-05T02:28:51.345Z,74.20
2023-05-05T02:29:31.304Z,74.38
2023-05-05T02:30:08.093Z,73.80
2023-05-05T02:30:44.323Z,74.72
2023-05-05T02:31:17.948Z,74.78
2023-05-05T02:31:53.914Z,74.90
2023-05-05T02:32:36.240Z,74.40
2023-05-05T02:33:11.734Z,74.05
2023-05-05T02:33:45.822Z,76.05
2023-05-05T02:34:25.125Z,75.30
2023-05-05T02:35:01.552Z,74.35
2023-05-05T02:35:37.985Z,74.38
2023-05-05T02:36:17.492Z,74.97
2023-05-05T02:37:00.818Z,75.72
2023-05-05T02:37:38.786Z,74.38
2023-05-05T02:38:17.328Z,74.47
2023-05-05T02:38:56.278Z,76.32
2023-05-05T02:39:35.637Z,75.63
2023-05-05T02:40:15.272Z,76.32
2023-05-05T02:40:49.892Z,77.03
2023-05-05T02:41:23.651Z,75.30
2023-05-05T02:41:58.956Z,75.18
2023-05-05T02:42:36.020Z,76.00
2023-05-05T02:43:14.846Z,78.82
2023-05-05T02:43:50.055Z,76.07
2023-05-05T02:44:27.063Z,75.88
2023-05-05T02:45:04.526Z,75.72
2023-05-05T02:45:38.205Z,77.05
2023-05-05T02:46:12.150Z,76.10
2023-05-05T02:46:47.534Z,76.00
2023-05-05T02:47:21.230Z,76.05
2023-05-05T02:47:57.931Z,75.15
2023-05-05T02:48:30.997Z,76.00
2023-05-05T02:49:06.778Z,77.03
2023-05-05T02:49:40.369Z,76.70
2023-05-05T02:50:15.732Z,77.80
2023-05-05T02:50:55.615Z,78.25
2023-05-05T02:51:34.799Z,76.55
2023-05-05T02:52:11.653Z,76.13
2023-05-05T02:52:45.971Z,75.43
2023-05-05T02:53:23.304Z,76.47
2023-05-05T02:53:56.965Z,76.45
2023-05-05T02:54:32.808Z,76.28
2023-05-05T02:55:07.853Z,76.22
2023-05-05T02:55:50.568Z,75.88
2023-05-05T02:56:33.611Z,77.90
2023-05-05T02:57:12.742Z,76.95
2023-05-05T02:57:49.782Z,76.53
2023-05-05T02:58:30.518Z,75.60
2023-05-05T02:59:14.511Z,76.10
2023-05-05T02:59:59.523Z,76.55
2023-05-05T03:00:40.405Z,75.60
2023-05-05T03:01:26.804Z,76.55
2023-05-05T03:02:11.087Z,75.07
2023-05-05T03:02:51.235Z,76.22
2023-05-05T03:03:30.796Z,76.20
2023-05-05T03:04:10.125Z,75.82
2023-05-05T03:04:54.246Z,75.55
2023-05-05T03:05:35.381Z,76.35
2023-05-05T03:06:15.535Z,74.75
2023-05-05T03:06:52.912Z,75.45
2023-05-05T03:07:34.988Z,75.35
2023-05-05T03:08:13.843Z,76.35
2023-05-05T03:08:53.392Z,76.20
2023-05-05T03:09:33.881Z,75.07
2023-05-05T03:10:09.381Z,76.85
2023-05-05T03:10:53.898Z,75.28
2023-05-05T03:11:33.242Z,75.13
2023-05-05T03:12:10.393Z,75.22
2023-05-05T03:13:11.466Z,74.57
2023-05-05T03:13:56.117Z,75.88
2023-05-05T03:14:33.511Z,76.32
2023-05-05T03:15:09.969Z,75.68
2023-05-05T03:15:46.539Z,75.68
2023-05-05T03:16:23.556Z,77.15
2023-05-05T03:16:58.093Z,75.68
2023-05-05T03:17:32.316Z,74.90
2023-05-05T03:18:08.363Z,76.18
2023-05-05T03:18:55.112Z,75.47
2023-05-05T03:19:32.763Z,74.90
2023-05-05T03:20:36.475Z,76.70
2023-05-05T03:21:12.959Z,75.82
2023-05-05T03:21:49.928Z,75.53
2023-05-05T03:22:22.802Z,75.45
2023-05-05T03:22:56.207Z,76.60
2023-05-05T03:23:30.907Z,75.07
2023-05-05T03:24:14.628Z,74.85
2023-05-05T03:24:53.997Z,74.70
2023-05-05T03:25:44.243Z,74.28
2023-05-05T03:26:20.696Z,76.35
2023-05-05T03:26:59.408Z,76.20
2023-05-05T03:27:46.297Z,75.65
2023-05-05T03:28:23.725Z,75.90
2023-05-05T03:28:56.428Z,77.43
2023-05-05T03:29:34.764Z,75.97
2023-05-05T03:30:10.445Z,74.55
2023-05-05T03:30:51.481Z,75.97
2023-05-05T03:31:27.379Z,74.43
2023-05-05T03:32:03.181Z,76.25
2023-05-05T03:32:35.743Z,74.25
2023-05-05T03:33:09.927Z,75.97
2023-05-05T03:33:43.959Z,74.93
2023-05-05T03:34:21.965Z,75.18
2023-05-05T03:34:54.977Z,75.60
2023-05-05T03:35:33.040Z,75.35
2023-05-05T03:36:09.146Z,76.80
2023-05-05T03:36:43.120Z,75.45
2023-05-05T03:37:20.799Z,74.40
2023-05-05T03:37:53.669Z,76.22
2023-05-05T03:38:27.222Z,74.13
2023-05-05T03:39:00.147Z,77.35
2023-05-05T03:39:37.823Z,75.93
2023-05-05T03:40:12.299Z,76.85
2023-05-05T03:40:45.073Z,76.40
2023-05-05T03:41:24.208Z,76.15
2023-05-05T03:41:57.445Z,75.47
2023-05-05T03:42:32.454Z,74.32
2023-05-05T03:43:08.011Z,78.88
2023-05-05T03:43:43.467Z,76.93
2023-05-05T03:44:16.413Z,76.28
2023-05-05T03:44:49.879Z,76.65
2023-05-05T03:45:22.448Z,76.45
2023-05-05T03:45:55.467Z,77.60
2023-05-05T03:46:29.209Z,77.43
2023-05-05T03:47:01.755Z,78.30
2023-05-05T03:47:36.463Z,78.60
2023-05-05T03:48:10.530Z,77.20
2023-05-05T03:48:46.152Z,78.63
2023-05-05T03:49:19.730Z,77.50
2023-05-05T03:49:53.907Z,78.78
2023-05-05T03:50:26.471Z,78.22
2023-05-05T03:50:59.603Z,79.90
2023-05-05T03:51:35.434Z,79.60
2023-05-05T03:52:07.893Z,82.50
2023-05-05T03:52:41.004Z,80.75
2023-05-05T03:53:14.546Z,78.50
2023-05-05T03:53:47.941Z,80.65
2023-05-05T03:54:20.788Z,79.90
2023-05-05T03:54:54.491Z,80.50
2023-05-05T03:55:26.963Z,81.88
2023-05-05T03:55:59.407Z,82.45
2023-05-05T03:56:32.901Z,80.78
2023-05-05T03:57:05.398Z,79.32
2023-05-05T03:57:37.866Z,79.70
2023-05-05T03:58:11.326Z,81.28
2023-05-05T03:58:43.825Z,79.47
2023-05-05T03:59:17.349Z,81.53
2023-05-05T03:59:51.146Z,79.22
2023-05-05T04:00:23.685Z,82.95
2023-05-05T04:00:56.473Z,81.07
2023-05-05T04:01:31.385Z,78.88
2023-05-05T04:02:04.870Z,79.32
2023-05-05T04:02:37.454Z,79.90
2023-05-05T04:03:11.635Z,78.95
2023-05-05T04:03:46.181Z,78.35
2023-05-05T04:04:18.813Z,79.15
2023-05-05T04:04:52.378Z,79.18
2023-05-05T04:05:26.063Z,80.20
2023-05-05T04:05:59.230Z,77.72
2023-05-05T04:06:32.726Z,77.82
2023-05-05T04:07:06.120Z,77.82
2023-05-05T04:07:38.734Z,78.28
2023-05-05T04:08:12.262Z,81.22
2023-05-05T04:08:44.774Z,77.97
2023-05-05T04:09:17.225Z,78.97
2023-05-05T04:09:50.954Z,78.40
2023-05-05T04:10:23.634Z,79.40
2023-05-05T04:10:59.069Z,80.50
2023-05-05T04:11:32.784Z,79.30
2023-05-05T04:12:06.183Z,78.88
2023-05-05T04:12:38.799Z,77.90
2023-05-05T04:13:13.220Z,77.97
2023-05-05T04:13:46.536Z,78.55
2023-05-05T04:14:19.215Z,78.35
2023-05-05T04:14:52.768Z,78.63
2023-05-05T04:15:25.385Z,78.57
2023-05-05T04:15:59.699Z,81.75
2023-05-05T04:16:33.370Z,79.80
2023-05-05T04:17:06.244Z,80.03
2023-05-05T04:17:39.162Z,80.95
2023-05-05T04:18:12.679Z,81.13
2023-05-05T04:18:47.634Z,79.68
2023-05-05T04:19:21.165Z,80.78
2023-05-05T04:19:53.941Z,80.72
2023-05-05T04:20:26.446Z,80.40
2023-05-05T04:20:59.915Z,80.75
2023-05-05T04:21:33.481Z,79.80
2023-05-05T04:22:06.365Z,80.90
2023-05-05T04:22:38.896Z,80.75
2023-05-05T04:23:12.388Z,81.55
2023-05-05T04:23:45.569Z,83.82
2023-05-05T04:24:23.083Z,81.07
2023-05-05T04:24:56.682Z,82.15
2023-05-05T04:25:29.446Z,82.97
2023-05-05T04:26:03.161Z,86.95
2023-05-05T04:26:36.463Z,82.70
2023-05-05T04:27:09.137Z,86.35
2023-05-05T04:27:42.579Z,86.68
2023-05-05T04:28:15.471Z,83.60
2023-05-05T04:28:47.964Z,84.05
2023-05-05T04:29:23.754Z,89.10
2023-05-05T04:29:56.251Z,83.70
2023-05-05T04:30:29.124Z,84.43
2023-05-05T04:31:04.977Z,89.78
2023-05-05T04:31:40.263Z,83.10
2023-05-05T04:32:12.854Z,87.78
2023-05-05T04:32:45.329Z,85.47
2023-05-05T04:33:18.929Z,85.55
2023-05-05T04:33:55.112Z,84.35
2023-05-05T04:34:27.605Z,85.95
2023-05-05T04:35:01.464Z,93.75
2023-05-05T04:35:33.992Z,85.90
2023-05-05T04:36:07.063Z,88.57
2023-05-05T04:36:40.592Z,84.38
2023-05-05T04:37:14.859Z,86.18
2023-05-05T04:37:47.547Z,96.47
2023-05-05T04:38:21.852Z,85.97
2023-05-05T04:38:54.736Z,85.13
2023-05-05T04:39:27.237Z,84.55
2023-05-05T04:40:00.820Z,83.57
2023-05-05T04:40:38.060Z,87.20
2023-05-05T04:41:11.848Z,85.97
2023-05-05T04:41:47.240Z,84.22
2023-05-05T04:42:20.238Z,93.03
2023-05-05T04:42:52.728Z,84.28
2023-05-05T04:43:26.217Z,85.25
2023-05-05T04:43:58.668Z,86.35
2023-05-05T04:44:32.112Z,84.80
2023-05-05T04:45:06.715Z,86.13
2023-05-05T04:45:39.573Z,83.93
2023-05-05T04:46:13.125Z,85.30
2023-05-05T04:46:46.767Z,84.40
2023-05-05T04:47:19.297Z,86.13
2023-05-05T04:47:51.888Z,84.78
2023-05-05T04:48:25.508Z,85.15
2023-05-05T04:49:00.894Z,85.00
2023-05-05T04:49:33.605Z,83.78
2023-05-05T04:50:08.371Z,85.68
2023-05-05T04:50:41.120Z,87.53
2023-05-05T04:51:14.656Z,85.35
2023-05-05T04:51:47.239Z,87.95
2023-05-05T04:52:19.718Z,86.70
2023-05-05T04:52:53.187Z,86.25
2023-05-05T04:53:26.060Z,85.03
2023-05-05T04:53:58.623Z,83.75
2023-05-05T04:54:32.147Z,88.43
2023-05-05T04:55:05.225Z,83.63
2023-05-05T04:55:39.723Z,85.78
2023-05-05T04:56:13.172Z,95.88
2023-05-05T04:56:45.637Z,84.15
2023-05-05T04:57:21.715Z,87.43
2023-05-05T04:57:55.688Z,85.97
2023-05-05T04:58:29.485Z,86.13
2023-05-05T04:59:01.928Z,85.47
2023-05-05T04:59:36.367Z,85.97
2023-05-05T05:00:10.159Z,86.22
2023-05-05T05:00:43.379Z,87.53
2023-05-05T05:01:16.865Z,86.43
2023-05-05T05:01:49.401Z,86.82
2023-05-05T05:02:22.146Z,89.35
2023-05-05T05:02:57.104Z,85.93
2023-05-05T05:03:32.028Z,89.07
2023-05-05T05:04:07.185Z,85.78
2023-05-05T05:04:39.679Z,87.80
2023-05-05T05:05:12.214Z,88.72
2023-05-05T05:05:45.806Z,85.57
2023-05-05T05:06:18.219Z,87.32
2023-05-05T05:06:50.837Z,90.20
2023-05-05T05:07:24.558Z,88.78
2023-05-05T05:07:57.271Z,85.82
2023-05-05T05:08:29.736Z,86.00
2023-05-05T05:09:03.240Z,87.82
2023-05-05T05:09:35.735Z,86.78
2023-05-05T05:10:09.925Z,89.30
2023-05-05T05:10:43.572Z,86.55
2023-05-05T05:11:16.020Z,86.65
2023-05-05T05:11:48.557Z,88.70
2023-05-05T05:12:22.010Z,87.93
2023-05-05T05:12:54.499Z,87.40
2023-05-05T05:13:27.046Z,84.80
2023-05-05T05:14:00.565Z,86.68
2023-05-05T05:14:37.226Z,84.97
2023-05-05T05:15:10.945Z,86.97
2023-05-05T05:15:44.554Z,86.22
2023-05-05T05:16:17.604Z,84.75
2023-05-05T05:16:52.342Z,86.70
2023-05-05T05:17:29.924Z,87.25
2023-05-05T05:18:02.877Z,91.38
2023-05-05T05:18:35.421Z,90.05
2023-05-05T05:19:10.488Z,87.47
2023-05-05T05:19:43.494Z,85.97
2023-05-05T05:20:16.372Z,84.55
2023-05-05T05:20:49.872Z,85.53
2023-05-05T05:21:22.354Z,85.35
2023-05-05T05:21:54.904Z,86.05
2023-05-05T05:22:28.430Z,84.28
2023-05-05T05:23:02.136Z,86.22
2023-05-05T05:23:36.155Z,83.45
2023-05-05T05:24:11.074Z,85.47
2023-05-05T05:24:44.140Z,88.70
2023-05-05T05:25:18.701Z,85.10
2023-05-05T05:25:52.995Z,84.93
2023-05-05T05:26:27.152Z,86.38
2023-05-05T05:27:01.500Z,86.28
2023-05-05T05:27:34.185Z,86.45
2023-05-05T05:28:10.737Z,87.05
2023-05-05T05:28:50.479Z,84.30
2023-05-05T05:29:23.033Z,92.40
2023-05-05T05:29:55.644Z,85.53
2023-05-05T05:30:29.182Z,86.10
2023-05-05T05:31:01.718Z,83.97
2023-05-05T05:31:36.770Z,84.13
2023-05-05T05:32:10.836Z,88.82
2023-05-05T05:32:43.553Z,83.97
2023-05-05T05:33:16.446Z,84.88
2023-05-05T05:33:51.167Z,81.97
2023-05-05T05:34:25.557Z,83.88
2023-05-05T05:34:58.110Z,85.57
2023-05-05T05:35:31.559Z,84.28
2023-05-05T05:36:04.760Z,87.60
2023-05-05T05:36:38.220Z,86.00
2023-05-05T05:37:11.438Z,86.50
2023-05-05T05:37:45.892Z,84.87
2023-05-05T05:38:18.475Z,85.28
2023-05-05T05:38:51.888Z,83.38
2023-05-05T05:39:25.447Z,86.13
2023-05-05T05:39:57.972Z,87.13
2023-05-05T05:40:32.759Z,85.85
2023-05-05T05:41:07.320Z,84.90
2023-05-05T05:41:40.896Z,86.25
2023-05-05T05:42:14.701Z,83.95
2023-05-05T05:42:47.317Z,84.18
2023-05-05T05:43:19.852Z,83.20
2023-05-05T05:43:53.348Z,84.60
2023-05-05T05:44:25.959Z,82.55
2023-05-05T05:44:58.768Z,81.70
2023-05-05T05:45:32.412Z,82.40
2023-05-05T05:46:07.512Z,83.63
2023-05-05T05:46:41.741Z,82.60
2023-05-05T05:47:15.713Z,80.95
2023-05-05T05:47:48.332Z,82.45
2023-05-05T05:48:22.106Z,82.35
2023-05-05T05:48:55.531Z,83.95
2023-05-05T05:49:29.593Z,81.85
2023-05-05T05:50:02.076Z,81.95
2023-05-05T05:50:36.477Z,81.80
2023-05-05T05:51:09.802Z,80.53
2023-05-05T05:51:43.290Z,81.32
2023-05-05T05:52:15.793Z,81.18
2023-05-05T05:52:48.253Z,81.47
2023-05-05T05:53:22.364Z,82.53
2023-05-05T05:53:58.231Z,80.70
2023-05-05T05:54:32.728Z,80.15
2023-05-05T05:55:07.476Z,82.23
2023-05-05T05:55:41.008Z,81.28
2023-05-05T05:56:13.622Z,80.80
2023-05-05T05:56:47.245Z,79.28
2023-05-05T05:57:22.184Z,80.78
2023-05-05T05:57:54.764Z,79.15
2023-05-05T05:58:28.394Z,79.70
2023-05-05T05:59:01.583Z,78.10
2023-05-05T05:59:34.166Z,77.95
2023-05-05T06:00:09.402Z,77.93
2023-05-05T06:00:48.051Z,79.57
2023-05-05T06:01:20.550Z,80.80
2023-05-05T06:01:55.830Z,79.10
2023-05-05T06:02:28.483Z,79.75
2023-05-05T06:03:01.664Z,78.55
2023-05-05T06:03:38.758Z,77.50
2023-05-05T06:04:13.229Z,76.95
2023-05-05T06:04:47.385Z,78.00
2023-05-05T06:05:21.487Z,77.38
2023-05-05T06:05:56.000Z,77.03
2023-05-05T06:06:29.568Z,77.20
2023-05-05T06:07:02.109Z,76.80
2023-05-05T06:07:34.647Z,79.55
2023-05-05T06:08:08.423Z,77.97
2023-05-05T06:08:45.818Z,78.38
2023-05-05T06:09:19.276Z,76.53
2023-05-05T06:09:51.802Z,77.28
2023-05-05T06:10:27.901Z,76.95
2023-05-05T06:11:10.732Z,77.22
2023-05-05T06:11:43.277Z,76.80
2023-05-05T06:12:16.303Z,76.97
2023-05-05T06:12:50.062Z,77.30
2023-05-05T06:13:22.645Z,75.93
2023-05-05T06:13:58.597Z,78.70
2023-05-05T06:14:31.105Z,77.57
2023-05-05T06:15:04.402Z,75.90
2023-05-05T06:15:37.932Z,76.90
2023-05-05T06:16:11.742Z,78.45
2023-05-05T06:16:47.156Z,77.28
2023-05-05T06:17:23.664Z,77.25
2023-05-05T06:17:56.390Z,77.25
2023-05-05T06:18:30.154Z,78.75
2023-05-05T06:19:02.629Z,77.90
2023-05-05T06:19:39.307Z,76.90
2023-05-05T06:20:15.075Z,77.00
2023-05-05T06:20:50.270Z,77.25
2023-05-05T06:21:24.506Z,75.07
2023-05-05T06:21:57.251Z,76.03
2023-05-05T06:22:30.024Z,75.90
2023-05-05T06:23:03.621Z,76.97
2023-05-05T06:23:38.989Z,77.40
2023-05-05T06:24:13.778Z,75.80
2023-05-05T06:24:46.818Z,78.28
2023-05-05T06:25:20.531Z,75.68
2023-05-05T06:25:55.655Z,76.30
2023-05-05T06:26:29.524Z,76.13
2023-05-05T06:27:02.417Z,76.20
2023-05-05T06:27:35.084Z,74.78
2023-05-05T06:28:08.536Z,76.15
2023-05-05T06:28:41.804Z,74.43
2023-05-05T06:29:14.271Z,75.82
2023-05-05T06:29:48.110Z,75.53
2023-05-05T06:30:20.798Z,75.68
2023-05-05T06:30:54.484Z,75.32
2023-05-05T06:31:27.061Z,75.78
2023-05-05T06:32:01.122Z,76.53
2023-05-05T06:32:33.627Z,76.22
2023-05-05T06:33:06.221Z,75.75
2023-05-05T06:33:41.012Z,74.93
2023-05-05T06:34:13.528Z,75.95
2023-05-05T06:34:47.386Z,74.90
2023-05-05T06:35:22.376Z,74.07
2023-05-05T06:35:54.884Z,75.32
2023-05-05T06:36:28.153Z,74.88
2023-05-05T06:37:01.656Z,75.40
2023-05-05T06:37:34.156Z,75.32
2023-05-05T06:38:06.879Z,73.10
2023-05-05T06:38:40.385Z,73.32
2023-05-05T06:39:15.284Z,73.73
2023-05-05T06:39:48.956Z,74.07
2023-05-05T06:40:22.485Z,73.65
2023-05-05T06:40:54.991Z,72.80
2023-05-05T06:41:27.471Z,73.75
2023-05-05T06:42:00.916Z,74.10
2023-05-05T06:42:33.484Z,73.90
2023-05-05T06:43:06.388Z,73.43
2023-05-05T06:43:45.142Z,72.50
2023-05-05T06:44:19.397Z,72.68
2023-05-05T06:44:51.916Z,73.57
2023-05-05T06:45:25.862Z,73.55
2023-05-05T06:45:58.316Z,70.97
2023-05-05T06:46:31.153Z,72.22
2023-05-05T06:47:05.384Z,73.63
2023-05-05T06:47:37.983Z,72.25
2023-05-05T06:48:11.480Z,72.43
2023-05-05T06:48:43.998Z,71.40
2023-05-05T06:49:16.557Z,71.68
2023-05-05T06:49:50.012Z,70.72
2023-05-05T06:50:23.807Z,71.65
2023-05-05T06:50:56.918Z,70.47
2023-05-05T06:51:31.312Z,70.80
2023-05-05T06:52:03.854Z,72.03
2023-05-05T06:52:37.310Z,71.80
2023-05-05T06:53:09.808Z,70.22
2023-05-05T06:53:42.278Z,70.05
2023-05-05T06:54:15.725Z,72.30
2023-05-05T06:54:48.199Z,71.45
2023-05-05T06:55:21.005Z,71.28
2023-05-05T06:55:54.457Z,70.80
2023-05-05T06:56:27.062Z,72.30
2023-05-05T06:56:59.833Z,71.03
2023-05-05T06:57:33.284Z,70.15
2023-05-05T06:58:05.762Z,70.00
2023-05-05T06:58:38.324Z,71.03
2023-05-05T06:59:11.898Z,71.43
2023-05-05T06:59:44.418Z,70.07
2023-05-05T07:00:17.766Z,70.63
2023-05-05T07:00:51.239Z,70.50
2023-05-05T07:01:23.810Z,70.65
2023-05-05T07:01:56.566Z,69.55
2023-05-05T07:02:30.333Z,70.20
2023-05-05T07:03:02.945Z,70.85
2023-05-05T07:03:36.530Z,69.43
2023-05-05T07:04:09.017Z,68.95
2023-05-05T07:04:41.781Z,68.72
2023-05-05T07:05:15.444Z,69.18
2023-05-05T07:05:49.261Z,68.07
2023-05-05T07:06:22.898Z,67.68
2023-05-05T07:06:55.558Z,67.28
2023-05-05T07:07:28.128Z,66.72
2023-05-05T07:08:01.650Z,67.47
2023-05-05T07:08:34.185Z,68.03
2023-05-05T07:09:07.626Z,67.68
2023-05-05T07:09:41.255Z,67.65
2023-05-05T07:10:19.983Z,67.75
2023-05-05T07:10:53.521Z,67.88
2023-05-05T07:11:26.031Z,67.75
2023-05-05T07:11:58.745Z,67.35
2023-05-05T07:12:32.341Z,69.07
2023-05-05T07:13:05.127Z,67.50
2023-05-05T07:13:38.661Z,69.00
2023-05-05T07:14:11.381Z,68.43
2023-05-05T07:14:44.133Z,68.03
2023-05-05T07:15:28.154Z,68.03
2023-05-05T07:16:01.535Z,67.95
2023-05-05T07:16:37.211Z,68.32
2023-05-05T07:17:10.689Z,67.18
2023-05-05T07:17:44.226Z,67.82
2023-05-05T07:18:17.239Z,68.20
2023-05-05T07:18:50.781Z,69.40
2023-05-05T07:19:23.566Z,68.22
2023-05-05T07:19:56.035Z,69.70
2023-05-05T07:20:29.576Z,67.50
2023-05-05T07:21:06.509Z,68.40
2023-05-05T07:21:40.044Z,68.63
2023-05-05T07:22:12.585Z,68.10
2023-05-05T07:22:45.020Z,69.30
2023-05-05T07:23:18.539Z,68.90
2023-05-05T07:23:51.028Z,67.75
2023-05-05T07:24:24.567Z,67.97
2023-05-05T07:24:58.043Z,68.20
2023-05-05T07:25:30.503Z,69.18
2023-05-05T07:26:03.999Z,68.90
2023-05-05T07:26:36.455Z,68.97
2023-05-05T07:27:08.985Z,68.88
2023-05-05T07:27:44.071Z,67.85
2023-05-05T07:28:16.879Z,69.75
2023-05-05T07:28:51.930Z,69.28
2023-05-05T07:29:24.432Z,68.47
2023-05-05T07:29:56.884Z,68.30
2023-05-05T07:30:30.355Z,68.88